createdAt,value
2019-03-25T03:07:27.348Z,24.6
2019-03-25T03:08:17.866Z,24.6
2019-03-25T03:09:07.835Z,24.5
2019-03-25T03:09:58.094Z,24.5
2019-03-25T03:10:48.720Z,24.4
2019-03-25T03:11:38.271Z,24.4
2019-03-25T03:12:28.277Z,24.4
2019-03-25T03:13:18.616Z,24.3
2019-03-25T03:14:08.138Z,24.5
2019-03-25T03:14:58.414Z,24.6
2019-03-25T03:15:48.609Z,24.6
2019-03-25T03:16:38.901Z,24.6
2019-03-25T03:17:28.362Z,24.8
2019-03-25T03:18:18.669Z,24.8
2019-03-25T03:19:08.205Z,24.9
2019-03-25T03:20:02.144Z,24.9
2019-03-25T03:20:49.151Z,25
2019-03-25T03:21:38.853Z,25.1
2019-03-25T03:22:28.943Z,25.2
2019-03-25T03:23:19.019Z,25.3
2019-03-25T03:24:08.801Z,25.4
2019-03-25T03:24:59.145Z,25.6
2019-03-25T03:26:05.920Z,25.7
2019-03-25T03:26:39.258Z,25.8
2019-03-25T03:27:32.891Z,25.9
2019-03-25T03:28:18.617Z,25.9
2019-03-25T03:29:09.646Z,26
2019-03-25T03:29:59.160Z,26.1
2019-03-25T03:31:04.835Z,26.2
2019-03-25T03:31:39.841Z,26.3
2019-03-25T03:32:43.965Z,26.3
2019-03-25T03:33:19.801Z,26.4
2019-03-25T03:34:10.155Z,26.4
2019-03-25T03:34:59.901Z,26.4
2019-03-25T03:35:54.366Z,26.3
2019-03-25T03:36:40.023Z,26.2
2019-03-25T03:37:28.968Z,26.1
2019-03-25T03:38:19.365Z,26
2019-03-25T03:39:09.135Z,25.9
2019-03-25T03:39:59.804Z,25.8
2019-03-25T03:40:49.518Z,25.7
2019-03-25T03:41:40.931Z,25.6
2019-03-25T03:42:30.635Z,25.5
2019-03-25T03:43:20.386Z,25.4
2019-03-25T03:44:10.853Z,25.3
2019-03-25T03:45:00.496Z,25.3
2019-03-25T03:45:50.089Z,25.1
2019-03-25T03:46:40.972Z,25.1
2019-03-25T03:47:30.073Z,25
2019-03-25T03:48:20.054Z,25
2019-03-25T03:49:10.254Z,24.9
2019-03-25T03:50:00.493Z,24.9
2019-03-25T03:50:49.966Z,24.9
2019-03-25T03:51:40.646Z,24.8
2019-03-25T03:52:30.855Z,24.8
2019-03-25T03:53:21.230Z,24.8
2019-03-25T03:54:11.501Z,24.7
2019-03-25T03:55:01.604Z,24.6
2019-03-25T03:55:51.206Z,24.6
2019-03-25T03:56:41.117Z,24.6
2019-03-25T03:57:31.794Z,24.5
2019-03-25T03:58:21.814Z,24.4
2019-03-25T03:59:10.826Z,24.4
2019-03-25T04:00:01.959Z,24.4
2019-03-25T04:00:51.235Z,24.3
2019-03-25T04:01:41.816Z,24.4
2019-03-25T04:02:31.866Z,24.5
2019-03-25T04:03:21.739Z,24.6
2019-03-25T04:04:11.507Z,24.7
2019-03-25T04:05:01.345Z,24.7
2019-03-25T04:05:51.804Z,24.8
2019-03-25T04:06:42.675Z,24.8
2019-03-25T04:07:32.594Z,24.9
2019-03-25T04:08:21.942Z,24.9
2019-03-25T04:09:12.580Z,25.1
2019-03-25T04:10:02.632Z,25.2
2019-03-25T04:10:52.028Z,25.3
2019-03-25T04:11:41.765Z,25.4
2019-03-25T04:12:33.202Z,25.4
2019-03-25T04:13:22.568Z,25.6
2019-03-25T04:14:13.016Z,25.7
2019-03-25T04:15:02.440Z,25.8
2019-03-25T04:15:52.546Z,25.9
2019-03-25T04:16:43.397Z,25.9
2019-03-25T04:17:33.523Z,26.1
2019-03-25T04:18:23.504Z,26.1
2019-03-25T04:19:13.012Z,26.2
2019-03-25T04:20:04.136Z,26.3
2019-03-25T04:20:53.412Z,26.3
2019-03-25T04:21:42.929Z,26.3
2019-03-25T04:22:33.233Z,26.3
2019-03-25T04:23:23.631Z,26.3
2019-03-25T04:24:13.731Z,26.3
2019-03-25T04:25:03.554Z,26.3
2019-03-25T04:25:53.853Z,26.3
2019-03-25T04:26:44.151Z,26.2
2019-03-25T04:27:33.407Z,26.2
2019-03-25T04:28:23.629Z,26.1
2019-03-25T04:29:13.715Z,26.2
2019-03-25T04:30:04.187Z,26.3
2019-03-25T04:30:54.164Z,26.3
2019-03-25T04:31:43.945Z,26.4
2019-03-25T04:32:34.328Z,26.4
2019-03-25T04:33:24.044Z,26.5
2019-03-25T04:34:14.349Z,26.6
2019-03-25T04:35:04.893Z,26.6
2019-03-25T04:35:54.213Z,26.6
2019-03-25T04:36:44.854Z,26.5
2019-03-25T04:37:33.894Z,26.4
2019-03-25T04:38:24.412Z,26.3
2019-03-25T04:39:14.994Z,26.2
2019-03-25T04:40:19.702Z,26.1
2019-03-25T04:40:54.609Z,25.9
2019-03-25T04:41:44.677Z,25.9
2019-03-25T04:42:34.725Z,25.8
2019-03-25T04:43:25.044Z,25.8
2019-03-25T04:44:14.562Z,25.6
2019-03-25T04:45:05.150Z,25.5
2019-03-25T04:45:54.943Z,25.4
2019-03-25T04:46:44.997Z,25.4
2019-03-25T04:47:35.274Z,25.3
2019-03-25T04:48:24.770Z,25.2
2019-03-25T04:49:15.102Z,25.2
2019-03-25T04:50:05.797Z,25.1
2019-03-25T04:50:55.230Z,25.1
2019-03-25T04:51:48.302Z,25
2019-03-25T04:52:35.102Z,25
2019-03-25T04:53:26.024Z,24.9
2019-03-25T04:54:15.745Z,24.9
2019-03-25T04:55:05.545Z,24.8
2019-03-25T04:55:56.282Z,24.8
2019-03-25T04:56:47.514Z,24.7
2019-03-25T04:57:50.669Z,24.6
2019-03-25T04:58:25.786Z,24.6
2019-03-25T04:59:15.888Z,24.5
2019-03-25T05:00:06.519Z,24.4
2019-03-25T05:00:56.046Z,24.4
2019-03-25T05:01:46.112Z,24.4
2019-03-25T05:02:36.429Z,24.3
2019-03-25T05:03:26.445Z,24.4
2019-03-25T05:04:16.086Z,24.6
2019-03-25T05:05:06.422Z,24.6
2019-03-25T05:05:56.894Z,24.7
2019-03-25T05:06:46.684Z,24.8
2019-03-25T05:07:36.988Z,24.9
2019-03-25T05:08:25.681Z,24.9
2019-03-25T05:09:16.580Z,25
2019-03-25T05:10:07.209Z,25.1
2019-03-25T05:10:56.683Z,25.1
2019-03-25T05:11:46.736Z,25.2
2019-03-25T05:12:37.066Z,25.3
2019-03-25T05:13:27.463Z,25.4
2019-03-25T05:14:16.923Z,25.5
2019-03-25T05:15:06.731Z,25.6
2019-03-25T05:15:57.373Z,25.7
2019-03-25T05:16:47.431Z,25.8
2019-03-25T05:17:37.151Z,25.9
2019-03-25T05:18:25.689Z,26
2019-03-25T05:19:17.852Z,26.1
2019-03-25T05:20:08.111Z,26.1
2019-03-25T05:20:57.427Z,26.3
2019-03-25T05:21:47.810Z,26.2
2019-03-25T05:22:38.128Z,26.1
2019-03-25T05:23:27.613Z,26
2019-03-25T05:24:18.245Z,25.9
2019-03-25T05:25:08.269Z,25.8
2019-03-25T05:25:57.779Z,25.7
2019-03-25T05:26:57.974Z,25.7
2019-03-25T05:27:37.580Z,25.6
2019-03-25T05:28:27.940Z,25.5
2019-03-25T05:29:17.474Z,25.5
2019-03-25T05:30:08.367Z,25.4
2019-03-25T05:30:57.884Z,25.3
2019-03-25T05:31:47.067Z,25.1
2019-03-25T05:32:38.822Z,25.1
2019-03-25T05:33:28.590Z,25
2019-03-25T05:34:18.392Z,24.9
2019-03-25T05:35:08.477Z,24.9
2019-03-25T05:35:59.043Z,24.8
2019-03-25T05:36:48.827Z,24.8
2019-03-25T05:37:38.885Z,24.8
2019-03-25T05:38:28.624Z,24.6
2019-03-25T05:39:18.453Z,24.6
2019-03-25T05:40:08.946Z,24.6
2019-03-25T05:40:59.389Z,24.6
2019-03-25T05:41:49.212Z,24.6
2019-03-25T05:42:39.237Z,24.5
2019-03-25T05:43:28.781Z,24.4
2019-03-25T05:44:19.663Z,24.4
2019-03-25T05:45:09.497Z,24.3
2019-03-25T05:45:59.511Z,24.3
2019-03-25T05:46:49.070Z,24.3
2019-03-25T05:47:38.517Z,24.3
2019-03-25T05:48:30.031Z,24.2
2019-03-25T05:49:19.741Z,24.1
2019-03-25T05:50:12.596Z,24.1
2019-03-25T05:51:00.409Z,24.1
2019-03-25T05:51:50.276Z,24
2019-03-25T05:52:40.266Z,24
2019-03-25T05:53:29.754Z,24.3
2019-03-25T05:54:19.614Z,24.3
2019-03-25T05:55:10.247Z,24.4
2019-03-25T05:55:59.198Z,24.4
2019-03-25T05:57:01.730Z,24.5
2019-03-25T05:57:39.770Z,24.6
2019-03-25T05:58:30.138Z,24.6
2019-03-25T05:59:19.878Z,24.7
2019-03-25T06:00:09.824Z,24.8
2019-03-25T06:01:00.310Z,24.8
2019-03-25T06:01:52.109Z,24.9
2019-03-25T06:02:40.158Z,25.1
2019-03-25T07:05:27.582Z,24.1
2019-03-25T07:06:18.501Z,24.1
2019-03-25T07:07:08.262Z,24
2019-03-25T07:07:58.521Z,24
2019-03-25T07:08:48.819Z,23.9
2019-03-25T07:09:37.667Z,23.9
2019-03-25T07:10:31.486Z,23.9
2019-03-25T07:11:17.997Z,23.9
2019-03-25T07:12:08.348Z,23.9
2019-03-25T07:12:58.412Z,23.8
2019-03-25T07:13:48.200Z,23.8
2019-03-25T07:14:38.524Z,23.8
2019-03-25T07:15:28.558Z,23.8
2019-03-25T07:16:18.644Z,23.8
2019-03-25T07:17:08.696Z,23.8
2019-03-25T07:17:58.659Z,23.7
2019-03-25T07:18:47.979Z,23.7
2019-03-25T07:19:38.911Z,23.6
2019-03-25T07:20:28.631Z,23.6
2019-03-25T07:21:21.497Z,23.6
2019-03-25T07:22:08.792Z,23.6
2019-03-25T07:22:58.842Z,23.6
2019-03-25T07:23:48.894Z,23.6
2019-03-25T07:24:38.944Z,23.5
2019-03-25T07:25:29.568Z,23.5
2019-03-25T07:26:18.806Z,23.4
2019-03-25T07:27:09.693Z,23.4
2019-03-25T07:27:58.385Z,23.4
2019-03-25T07:28:48.441Z,23.4
2019-03-25T07:29:39.408Z,23.4
2019-03-25T07:30:29.951Z,23.3
2019-03-25T07:31:19.764Z,23.3
2019-03-25T07:32:12.428Z,23.3
2019-03-25T07:33:00.106Z,23.3
2019-03-25T07:33:49.128Z,23.3
2019-03-25T07:34:42.230Z,23.2
2019-03-25T07:35:30.031Z,23.2
2019-03-25T07:36:20.070Z,23.2
2019-03-25T07:37:10.140Z,23.2
2019-03-25T07:38:00.318Z,23.1
2019-03-25T07:38:49.753Z,23.1
2019-03-25T07:39:40.575Z,23.1
2019-03-25T07:40:30.165Z,23.1
2019-03-25T07:41:23.332Z,23.1
2019-03-25T07:42:10.800Z,23
2019-03-25T07:43:00.292Z,23
2019-03-25T07:43:50.347Z,23
2019-03-25T07:44:40.719Z,22.9
2019-03-25T07:45:30.730Z,22.9
2019-03-25T07:46:21.129Z,22.9
2019-03-25T07:47:10.388Z,22.9
2019-03-25T07:48:00.915Z,22.9
2019-03-25T07:48:51.017Z,22.9
2019-03-25T07:49:40.887Z,22.8
2019-03-25T07:50:30.878Z,22.8
2019-03-25T07:51:19.864Z,22.8
2019-03-25T07:52:13.084Z,22.8
2019-03-25T07:53:00.802Z,22.8
2019-03-25T07:53:53.300Z,22.8
2019-03-25T07:54:40.849Z,22.7
2019-03-25T07:55:30.918Z,22.7
2019-03-25T07:56:21.718Z,22.7
2019-03-25T07:57:14.293Z,22.7
2019-03-25T07:58:02.118Z,22.6
2019-03-25T07:58:51.984Z,22.6
2019-03-25T07:59:41.196Z,22.6
2019-03-25T08:00:32.110Z,22.6
2019-03-25T08:01:22.066Z,22.6
2019-03-25T08:02:11.853Z,22.6
2019-03-25T08:03:02.641Z,22.6
2019-03-25T08:03:51.780Z,22.5
2019-03-25T08:04:44.265Z,22.5
2019-03-25T08:05:32.758Z,22.5
2019-03-25T08:06:22.446Z,22.5
2019-03-25T08:07:12.537Z,22.4
2019-03-25T08:08:01.511Z,22.4
2019-03-25T08:09:04.772Z,22.4
2019-03-25T08:09:42.578Z,22.4
2019-03-25T08:10:32.451Z,22.4
2019-03-25T08:11:23.115Z,22.4
2019-03-25T08:12:12.677Z,22.4
2019-03-25T08:13:03.825Z,22.4
2019-03-25T08:13:53.221Z,22.3
2019-03-25T08:14:43.096Z,22.3
2019-03-25T08:15:33.123Z,22.3
2019-03-25T08:16:23.186Z,22.3
2019-03-25T08:17:13.046Z,22.3
2019-03-25T08:18:03.135Z,22.3
2019-03-25T08:18:52.878Z,22.3
2019-03-25T08:19:42.921Z,22.3
2019-03-25T08:20:33.276Z,22.2
2019-03-25T08:21:26.514Z,22.2
2019-03-25T08:22:13.690Z,22.2
2019-03-25T08:23:02.959Z,22.1
2019-03-25T08:23:53.856Z,22.1
2019-03-25T08:24:43.317Z,22.2
2019-03-25T08:25:33.160Z,22.1
2019-03-25T08:26:23.955Z,22.1
2019-03-25T08:27:13.790Z,22.1
2019-03-25T08:28:07.353Z,22.1
2019-03-25T08:28:53.933Z,22.1
2019-03-25T08:29:43.745Z,22.1
2019-03-25T08:30:32.780Z,22.1
2019-03-25T08:31:23.874Z,22.1
2019-03-25T08:32:13.112Z,22.1
2019-03-25T08:33:04.249Z,22
2019-03-25T08:33:54.538Z,22
2019-03-25T08:34:44.585Z,22
2019-03-25T08:35:34.090Z,22
2019-03-25T08:36:24.014Z,21.9
2019-03-25T08:37:14.535Z,21.9
2019-03-25T08:38:03.521Z,21.9
2019-03-25T08:38:54.352Z,21.9
2019-03-25T08:39:45.017Z,21.9
2019-03-25T08:40:34.739Z,21.9
2019-03-25T08:41:24.827Z,21.9
2019-03-25T08:42:15.157Z,21.9
2019-03-25T08:43:05.221Z,21.9
2019-03-25T08:43:58.009Z,21.9
2019-03-25T08:44:43.719Z,21.9
2019-03-25T08:45:34.831Z,21.8
2019-03-25T08:46:24.664Z,21.8
2019-03-25T08:47:15.214Z,21.8
2019-03-25T08:48:04.529Z,21.8
2019-03-25T08:48:55.601Z,21.8
2019-03-25T08:49:45.642Z,21.8
2019-03-25T08:50:35.453Z,21.8
2019-03-25T08:51:25.544Z,21.8
2019-03-25T08:52:15.301Z,21.8
2019-03-25T08:53:04.366Z,21.8
2019-03-25T08:53:56.031Z,21.8
2019-03-25T08:54:45.839Z,21.7
2019-03-25T08:55:35.866Z,21.7
2019-03-25T08:56:25.886Z,21.7
2019-03-25T08:57:16.224Z,21.7
2019-03-25T08:58:17.811Z,21.7
2019-03-25T08:58:55.018Z,21.7
2019-03-25T08:59:45.591Z,21.6
2019-03-25T09:00:36.174Z,21.6
2019-03-25T09:01:26.283Z,21.6
2019-03-25T09:02:16.812Z,21.6
2019-03-25T09:03:05.309Z,21.6
2019-03-25T09:03:55.861Z,21.6
2019-03-25T09:04:44.871Z,21.6
2019-03-25T09:05:36.504Z,21.6
2019-03-25T09:06:26.795Z,21.6
2019-03-25T09:07:16.677Z,21.6
2019-03-25T09:08:07.080Z,21.6
2019-03-25T09:08:56.845Z,21.6
2019-03-25T09:09:47.186Z,21.6
2019-03-25T09:10:36.696Z,21.5
2019-03-25T09:11:27.237Z,21.6
2019-03-25T09:12:17.145Z,21.6
2019-03-25T09:13:06.813Z,21.5
2019-03-25T09:13:56.357Z,21.5
2019-03-25T09:14:46.467Z,21.5
2019-03-25T09:15:37.287Z,21.5
2019-03-25T09:16:27.070Z,21.5
2019-03-25T09:17:17.107Z,21.4
2019-03-25T09:18:07.195Z,21.4
2019-03-25T09:18:56.977Z,21.4
2019-03-25T09:19:47.334Z,21.4
2019-03-25T09:20:37.087Z,21.4
2019-03-25T09:21:28.000Z,21.4
2019-03-25T09:22:18.040Z,21.4
2019-03-25T09:23:07.870Z,21.4
2019-03-25T09:23:58.149Z,21.4
2019-03-25T09:24:47.687Z,21.4
2019-03-25T09:25:38.020Z,21.4
2019-03-25T09:26:42.739Z,21.4
2019-03-25T09:27:17.574Z,21.4
2019-03-25T09:28:08.279Z,21.4
2019-03-25T09:28:58.524Z,21.4
2019-03-25T09:29:47.506Z,21.3
2019-03-25T09:30:38.347Z,21.3
2019-03-25T09:31:41.190Z,21.3
2019-03-25T09:32:18.202Z,21.3
2019-03-25T09:33:08.564Z,21.3
2019-03-25T09:33:58.916Z,21.3
2019-03-25T09:34:48.382Z,21.3
2019-03-25T09:35:38.426Z,21.3
2019-03-25T09:36:28.531Z,21.3
2019-03-25T09:37:20.023Z,21.3
2019-03-25T09:38:08.625Z,21.3
2019-03-25T09:38:58.966Z,21.3
2019-03-25T09:39:48.288Z,21.3
2019-03-25T09:40:39.056Z,21.3
2019-03-25T09:41:29.627Z,21.3
2019-03-25T09:42:19.218Z,21.3
2019-03-25T09:43:09.273Z,21.3
2019-03-25T09:43:59.541Z,21.3
2019-03-25T09:44:49.113Z,21.2
2019-03-25T09:45:39.440Z,21.2
2019-03-25T09:46:29.503Z,21.2
2019-03-25T09:47:19.353Z,21.2
2019-03-25T09:48:09.620Z,21.2
2019-03-25T09:48:59.963Z,21.2
2019-03-25T09:49:50.030Z,21.2
2019-03-25T09:50:39.820Z,21.2
2019-03-25T09:52:19.966Z,21.2
2019-03-25T09:55:39.943Z,21.2
2019-03-25T10:03:10.729Z,21.1
2019-03-25T10:04:00.235Z,21.1
2019-03-25T10:06:28.625Z,21.1
2019-03-25T10:07:18.367Z,21.1
2019-03-25T10:09:04.721Z,21.1
2019-03-25T10:09:53.539Z,21
2019-03-25T10:11:13.399Z,21.1
2019-03-25T10:12:16.774Z,21
2019-03-25T10:12:53.141Z,21.1
2019-03-25T10:14:02.989Z,21
2019-03-25T10:14:24.487Z,21
2019-03-25T10:16:04.581Z,21
2019-03-25T10:16:56.813Z,21
2019-03-25T10:17:45.064Z,21
2019-03-25T10:18:34.239Z,21
2019-03-25T10:19:40.856Z,21
2019-03-25T10:20:15.373Z,20.9
2019-03-25T10:21:33.853Z,21
2019-03-25T10:22:14.656Z,20.9
2019-03-25T10:22:51.861Z,20.9
2019-03-25T10:23:56.182Z,21
2019-03-25T10:24:36.356Z,20.9
2019-03-25T10:25:20.502Z,20.9
2019-03-25T10:26:26.303Z,20.9
2019-03-25T10:27:16.363Z,20.9
2019-03-25T10:28:05.816Z,20.9
2019-03-25T10:29:23.038Z,20.9
2019-03-25T10:29:36.193Z,20.9
2019-03-25T10:30:25.618Z,20.9
2019-03-25T10:31:14.213Z,20.9
2019-03-25T10:32:20.662Z,20.9
2019-03-25T10:33:10.650Z,20.9
2019-03-25T10:34:00.653Z,20.9
2019-03-25T10:35:22.163Z,20.9
2019-03-25T10:35:49.496Z,20.9
2019-03-25T10:36:24.355Z,20.9
2019-03-25T10:37:14.513Z,20.9
2019-03-25T10:38:34.088Z,20.9
2019-03-25T10:39:09.293Z,20.9
2019-03-25T10:39:59.860Z,20.9
2019-03-25T10:41:33.280Z,20.9
2019-03-25T10:42:01.415Z,20.8
2019-03-25T10:43:33.955Z,20.9
2019-03-25T10:44:00.692Z,20.9
2019-03-25T10:44:50.360Z,20.9
2019-03-25T10:45:26.387Z,20.9
2019-03-25T10:46:30.668Z,20.8
2019-03-25T10:47:19.539Z,20.8
2019-03-25T10:47:56.367Z,20.8
2019-03-25T10:48:47.310Z,20.8
2019-03-25T10:49:36.159Z,20.8
2019-03-25T10:50:26.589Z,20.8
2019-03-25T10:51:16.707Z,20.8
2019-03-25T10:52:21.487Z,20.8
2019-03-25T10:53:11.549Z,20.8
2019-03-25T10:54:02.301Z,20.8
2019-03-25T10:54:38.528Z,20.8
2019-03-25T10:55:27.795Z,20.8
2019-03-25T10:56:16.091Z,20.8
2019-03-25T10:57:07.755Z,20.8
2019-03-25T10:59:01.969Z,20.8
2019-03-25T10:59:51.689Z,20.8
2019-03-25T11:00:27.369Z,20.8
2019-03-25T11:01:18.201Z,20.8
2019-03-25T11:02:37.026Z,20.8
2019-03-25T11:03:12.766Z,20.8
2019-03-25T11:04:32.251Z,20.8
2019-03-25T11:04:58.473Z,20.8
2019-03-25T11:05:37.809Z,20.8
2019-03-25T11:06:25.088Z,20.8
2019-03-25T11:07:14.445Z,20.8
2019-03-25T11:08:04.683Z,20.8
2019-03-25T11:08:55.526Z,20.8
2019-03-25T11:09:58.545Z,20.8
2019-03-25T11:10:35.208Z,20.8
2019-03-25T11:11:39.582Z,20.8
2019-03-25T11:12:29.773Z,20.8
2019-03-25T11:13:19.410Z,20.8
2019-03-25T11:13:55.805Z,20.8
2019-03-25T11:14:45.732Z,20.8
2019-03-25T11:15:50.611Z,20.8
2019-03-25T11:16:39.026Z,20.7
2019-03-25T11:17:15.063Z,20.8
2019-03-25T11:18:08.371Z,20.7
2019-03-25T11:19:09.348Z,20.7
2019-03-25T11:19:44.750Z,20.7
2019-03-25T11:20:35.247Z,20.7
2019-03-25T12:06:27.858Z,20.6
2019-03-25T12:07:17.954Z,20.6
2019-03-25T12:08:06.907Z,20.6
2019-03-25T12:08:58.075Z,20.6
2019-03-25T12:09:48.800Z,20.6
2019-03-25T12:10:37.889Z,20.6
2019-03-25T12:11:30.251Z,20.6
2019-03-25T12:12:18.295Z,20.6
2019-03-25T12:13:08.435Z,20.6
2019-03-25T12:13:58.442Z,20.6
2019-03-25T12:14:47.947Z,20.6
2019-03-25T12:15:38.305Z,20.6
2019-03-25T12:16:28.333Z,20.6
2019-03-25T12:17:18.107Z,20.6
2019-03-25T12:18:08.187Z,20.6
2019-03-25T12:18:58.209Z,20.6
2019-03-25T12:19:48.887Z,20.6
2019-03-25T12:20:38.622Z,20.6
2019-03-25T12:21:28.424Z,20.5
2019-03-25T12:22:20.062Z,20.6
2019-03-25T12:23:09.099Z,20.6
2019-03-25T12:23:57.782Z,20.5
2019-03-25T12:24:48.152Z,20.5
2019-03-25T12:25:39.292Z,20.5
2019-03-25T12:26:29.329Z,20.5
2019-03-25T12:27:19.674Z,20.5
2019-03-25T12:28:09.756Z,20.5
2019-03-25T12:28:59.057Z,20.5
2019-03-25T12:29:49.654Z,20.5
2019-03-25T12:30:39.684Z,20.5
2019-03-25T12:31:29.494Z,20.6
2019-03-25T12:32:18.958Z,20.6
2019-03-25T12:33:11.857Z,20.5
2019-03-25T12:33:59.886Z,20.5
2019-03-25T12:34:49.249Z,20.5
2019-03-25T12:35:39.462Z,20.5
2019-03-25T12:36:29.514Z,20.5
2019-03-25T12:37:19.921Z,20.5
2019-03-25T12:38:10.194Z,20.5
2019-03-25T12:38:59.698Z,20.5
2019-03-25T12:39:49.530Z,20.5
2019-03-25T12:40:40.432Z,20.5
2019-03-25T12:41:29.607Z,20.5
2019-03-25T12:42:19.963Z,20.5
2019-03-25T12:43:10.321Z,20.5
2019-03-25T12:44:00.348Z,20.5
2019-03-25T12:44:49.566Z,20.5
2019-03-25T12:45:40.195Z,20.5
2019-03-25T12:46:30.813Z,20.5
2019-03-25T12:47:20.573Z,20.5
2019-03-25T12:48:10.233Z,20.5
2019-03-25T12:49:00.472Z,20.5
2019-03-25T12:49:51.134Z,20.5
2019-03-25T12:50:41.098Z,20.5
2019-03-25T12:51:30.878Z,20.5
2019-03-25T12:52:21.236Z,20.5
2019-03-25T12:53:11.292Z,20.5
2019-03-25T12:54:00.833Z,20.5
2019-03-25T12:54:50.663Z,20.5
2019-03-25T12:55:41.495Z,20.5
2019-03-25T12:56:30.990Z,20.5
2019-03-25T12:57:20.770Z,20.5
2019-03-25T12:58:13.915Z,20.5
2019-03-25T12:59:01.169Z,20.4
2019-03-25T12:59:51.535Z,20.5
2019-03-25T13:00:41.572Z,20.5
2019-03-25T13:01:31.899Z,20.5
2019-03-25T13:02:21.137Z,20.5
2019-03-25T13:03:11.554Z,20.5
2019-03-25T13:04:02.283Z,20.5
2019-03-25T13:04:51.062Z,20.5
2019-03-25T13:05:41.404Z,20.5
2019-03-25T13:06:32.307Z,20.5
2019-03-25T13:07:21.242Z,20.5
2019-03-25T13:08:11.594Z,20.4
2019-03-25T13:09:04.821Z,20.4
2019-03-25T13:09:52.531Z,20.5
2019-03-25T13:10:41.801Z,20.4
2019-03-25T13:11:32.099Z,20.5
2019-03-25T13:12:21.619Z,20.4
2019-03-25T13:13:11.713Z,20.4
2019-03-25T13:14:02.262Z,20.4
2019-03-25T13:14:52.825Z,20.4
2019-03-25T13:15:42.148Z,20.4
2019-03-25T13:16:31.961Z,20.4
2019-03-25T13:17:23.104Z,20.4
2019-03-25T13:18:13.119Z,20.4
2019-03-25T13:19:02.910Z,20.4
2019-03-25T13:19:52.141Z,20.4
2019-03-25T13:20:43.088Z,20.4
2019-03-25T13:21:32.829Z,20.4
2019-03-25T13:22:23.158Z,20.5
2019-03-25T13:23:13.527Z,20.4
2019-03-25T13:24:02.792Z,20.4
2019-03-25T13:24:53.084Z,20.4
2019-03-25T13:25:46.066Z,20.4
2019-03-25T13:26:32.973Z,20.4
2019-03-25T13:27:23.545Z,20.4
2019-03-25T13:28:13.856Z,20.4
2019-03-25T13:29:10.000Z,20.4
2019-03-25T13:29:59.816Z,20.4
2019-03-25T13:30:43.906Z,20.4
2019-03-25T13:31:34.118Z,20.4
2019-03-25T13:32:24.170Z,20.4
2019-03-25T13:33:13.675Z,20.4
2019-03-25T13:34:04.379Z,20.4
2019-03-25T13:34:54.048Z,20.4
2019-03-25T13:35:44.226Z,20.4
2019-03-25T13:36:33.644Z,20.4
2019-03-25T13:37:23.741Z,20.4
2019-03-25T13:38:14.645Z,20.4
2019-03-25T13:39:05.755Z,20.4
2019-03-25T13:39:53.923Z,20.4
2019-03-25T13:40:44.001Z,20.4
2019-03-25T13:41:34.828Z,20.4
2019-03-25T13:42:24.420Z,20.4
2019-03-25T13:43:14.960Z,20.4
2019-03-25T13:44:04.232Z,20.4
2019-03-25T13:44:59.043Z,20.4
2019-03-25T13:45:44.600Z,20.4
2019-03-25T13:46:34.430Z,20.4
2019-03-25T13:47:24.797Z,20.4
2019-03-25T13:48:15.342Z,20.4
2019-03-25T13:49:05.439Z,20.4
2019-03-25T13:49:55.178Z,20.4
2019-03-25T13:50:45.507Z,20.4
2019-03-25T13:51:35.034Z,20.4
2019-03-25T13:52:25.622Z,20.4
2019-03-25T13:53:14.852Z,20.4
2019-03-25T13:54:07.589Z,20.4
2019-03-25T13:54:55.332Z,20.4
2019-03-25T13:55:45.899Z,20.4
2019-03-25T13:56:35.680Z,20.4
2019-03-25T13:57:25.734Z,20.4
2019-03-25T13:58:15.775Z,20.4
2019-03-25T13:59:05.293Z,20.4
2019-03-25T14:00:07.992Z,20.4
2019-03-25T14:00:45.702Z,20.4
2019-03-25T14:01:35.491Z,20.4
2019-03-25T14:02:27.954Z,20.4
2019-03-25T14:03:15.332Z,20.4
2019-03-25T14:04:05.971Z,20.4
2019-03-25T14:04:55.728Z,20.4
2019-03-25T14:07:27.809Z,20.4
2019-03-25T14:08:17.314Z,20.4
2019-03-25T14:09:07.992Z,20.4
2019-03-25T14:09:57.711Z,20.4
2019-03-25T14:10:48.050Z,20.4
2019-03-25T14:11:37.329Z,20.4
2019-03-25T14:12:27.369Z,20.4
2019-03-25T14:13:17.418Z,20.4
2019-03-25T14:14:08.019Z,20.4
2019-03-25T14:14:58.341Z,20.4
2019-03-25T14:15:48.174Z,20.4
2019-03-25T14:16:38.466Z,20.4
2019-03-25T14:17:27.771Z,20.4
2019-03-25T14:18:17.796Z,20.4
2019-03-25T14:19:08.648Z,20.4
2019-03-25T14:19:58.450Z,20.4
2019-03-25T14:20:48.320Z,20.4
2019-03-25T14:21:38.537Z,20.4
2019-03-25T14:22:28.088Z,20.4
2019-03-25T14:23:17.918Z,20.4
2019-03-25T14:24:08.510Z,20.4
2019-03-25T14:24:58.821Z,20.4
2019-03-25T14:25:49.135Z,20.4
2019-03-25T14:26:38.933Z,20.4
2019-03-25T14:27:28.758Z,20.4
2019-03-25T14:28:19.065Z,20.4
2019-03-25T14:29:09.462Z,20.4
2019-03-25T14:29:59.152Z,20.4
2019-03-25T14:30:49.234Z,20.4
2019-03-25T14:31:39.617Z,20.4
2019-03-25T14:32:29.117Z,20.4
2019-03-25T14:33:18.873Z,20.4
2019-03-25T14:34:09.470Z,20.4
2019-03-25T14:34:59.523Z,20.4
2019-03-25T14:35:49.025Z,20.4
2019-03-25T14:36:39.960Z,20.4
2019-03-25T14:37:29.675Z,20.4
2019-03-25T14:38:20.050Z,20.4
2019-03-25T14:39:09.012Z,20.4
2019-03-25T14:39:59.354Z,20.4
2019-03-25T14:40:50.010Z,20.4
2019-03-25T14:41:40.017Z,20.4
2019-03-25T14:42:30.107Z,20.4
2019-03-25T14:43:19.862Z,20.4
2019-03-25T14:44:10.274Z,20.4
2019-03-25T14:45:00.730Z,20.4
2019-03-25T14:45:49.846Z,20.4
2019-03-25T14:46:40.112Z,20.4
2019-03-25T14:47:30.783Z,20.4
2019-03-25T14:48:19.817Z,20.4
2019-03-25T14:49:13.307Z,20.4
2019-03-25T14:50:00.093Z,20.4
2019-03-25T14:50:50.981Z,20.4
2019-03-25T14:51:41.046Z,20.4
2019-03-25T14:52:29.696Z,20.4
2019-03-25T14:53:20.311Z,20.4
2019-03-25T14:54:10.948Z,20.4
2019-03-25T14:55:00.882Z,20.4
2019-03-25T14:55:51.090Z,20.4
2019-03-25T14:56:41.156Z,20.4
2019-03-25T14:57:31.046Z,20.4
2019-03-25T14:58:21.529Z,20.4
2019-03-25T14:59:11.319Z,20.5
2019-03-25T15:00:00.674Z,20.4
2019-03-25T15:00:51.586Z,20.4
2019-03-25T15:01:41.502Z,20.4
2019-03-25T15:02:31.839Z,20.4
2019-03-25T15:03:20.227Z,20.4
2019-03-25T15:04:11.416Z,20.4
2019-03-25T15:05:01.486Z,20.4
2019-03-25T15:05:51.546Z,20.4
2019-03-25T15:06:41.882Z,20.4
2019-03-25T15:07:30.866Z,20.4
2019-03-25T15:08:22.277Z,20.4
2019-03-25T15:09:11.768Z,20.4
2019-03-25T15:10:01.956Z,20.4
2019-03-25T15:11:00.961Z,20.5
2019-03-25T15:11:57.198Z,20.4
2019-03-25T15:12:32.288Z,20.4
2019-03-25T15:13:21.848Z,20.4
2019-03-25T15:14:12.735Z,20.4
2019-03-25T15:15:02.763Z,20.5
2019-03-25T15:15:52.345Z,20.4
2019-03-25T15:16:42.607Z,20.4
2019-03-25T15:17:32.381Z,20.5
2019-03-25T15:18:23.547Z,20.5
2019-03-25T15:19:12.495Z,20.5
2019-03-25T15:20:03.213Z,20.5
2019-03-25T15:20:52.690Z,20.4
2019-03-25T15:21:43.240Z,20.5
2019-03-25T15:22:32.795Z,20.5
2019-03-25T15:23:23.415Z,20.5
2019-03-25T15:24:13.192Z,20.5
2019-03-25T15:25:03.675Z,20.5
2019-03-25T15:25:52.190Z,20.5
2019-03-25T15:26:43.048Z,20.5
2019-03-25T15:27:33.407Z,20.5
2019-03-25T15:28:23.774Z,20.5
2019-03-25T15:29:13.384Z,20.5
2019-03-25T15:30:03.868Z,20.5
2019-03-25T15:30:53.664Z,20.5
2019-03-25T15:31:43.695Z,20.5
2019-03-25T15:32:33.479Z,20.5
2019-03-25T15:33:23.283Z,20.5
2019-03-25T15:34:13.309Z,20.5
2019-03-25T15:35:04.205Z,20.5
2019-03-25T15:35:54.301Z,20.5
2019-03-25T15:36:44.364Z,20.5
2019-03-25T15:37:34.451Z,20.5
2019-03-25T15:38:26.270Z,20.5
2019-03-25T15:39:14.061Z,20.5
2019-03-25T15:40:03.792Z,20.5
2019-03-25T15:40:54.099Z,20.5
2019-03-25T15:41:44.156Z,20.5
2019-03-25T15:42:34.546Z,20.5
2019-03-25T15:43:24.339Z,20.5
2019-03-25T15:44:14.952Z,20.5
2019-03-25T15:45:04.636Z,20.5
2019-03-25T15:45:57.376Z,20.5
2019-03-25T15:46:56.191Z,20.5
2019-03-25T15:47:37.232Z,20.5
2019-03-25T15:48:24.664Z,20.5
2019-03-25T15:49:15.308Z,20.5
2019-03-25T15:50:05.213Z,20.5
2019-03-25T15:50:54.580Z,20.5
2019-03-25T15:51:47.516Z,20.5
2019-03-25T15:52:35.235Z,20.5
2019-03-25T15:53:25.573Z,20.5
2019-03-25T15:54:14.811Z,20.5
2019-03-25T15:55:05.462Z,20.5
2019-03-25T15:55:54.976Z,20.5
2019-03-25T15:56:45.818Z,20.5
2019-03-25T15:57:35.353Z,20.5
2019-03-25T15:58:33.273Z,20.5
2019-03-25T15:59:15.858Z,20.5
2019-03-25T16:00:05.705Z,20.5
2019-03-25T16:00:56.586Z,20.5
2019-03-25T16:01:45.675Z,20.5
2019-03-25T16:02:36.325Z,20.5
2019-03-25T16:03:25.857Z,20.5
2019-03-25T16:04:16.093Z,20.5
2019-03-25T16:05:06.425Z,20.5
2019-03-25T16:07:27.393Z,20.4
2019-03-25T16:08:17.227Z,20.5
2019-03-25T16:09:07.392Z,20.5
2019-03-25T16:09:57.057Z,20.5
2019-03-25T16:11:02.708Z,20.4
2019-03-25T16:11:52.387Z,20.4
2019-03-25T16:12:28.285Z,20.5
2019-03-25T16:13:34.261Z,20.4
2019-03-25T16:14:07.687Z,20.4
2019-03-25T16:14:58.927Z,20.4
2019-03-25T16:16:02.499Z,20.4
2019-03-25T16:16:37.834Z,20.5
2019-03-25T16:17:28.112Z,20.4
2019-03-25T16:18:18.577Z,20.4
2019-03-25T16:19:07.969Z,20.4
2019-03-25T16:20:48.669Z,20.4
2019-03-25T16:21:38.537Z,20.4